sensor_id;sensor_type;location;lat;lon;timestamp;temperature;humidity
8220;DHT22;4151;51.110;7.020;2022-12-20T00:01:16;10.40;99.90
8220;DHT22;4151;51.110;7.020;2022-12-20T00:03:42;10.40;99.90
8220;DHT22;4151;51.110;7.020;2022-12-20T00:06:09;10.40;99.90
8220;DHT22;4151;51.110;7.020;2022-12-20T00:08:36;10.40;99.90
8220;DHT22;4151;51.110;7.020;2022-12-20T00:11:04;10.40;99.90
8220;DHT22;4151;51.110;7.020;2022-12-20T00:13:30;10.40;99.90
8220;DHT22;4151;51.110;7.020;2022-12-20T00:16:10;10.40;99.90
8220;DHT22;4151;51.110;7.020;2022-12-20T00:18:36;10.50;99.90
8220;DHT22;4151;51.110;7.020;2022-12-20T00:21:03;10.50;99.90
8220;DHT22;4151;51.110;7.020;2022-12-20T00:23:30;10.50;99.90
8220;DHT22;4151;51.110;7.020;2022-12-20T00:26:12;10.50;99.90
8220;DHT22;4151;51.110;7.020;2022-12-20T00:28:39;10.50;99.90
8220;DHT22;4151;51.110;7.020;2022-12-20T00:31:06;10.50;99.90
8220;DHT22;4151;51.110;7.020;2022-12-20T00:33:34;10.50;99.90
8220;DHT22;4151;51.110;7.020;2022-12-20T00:35:59;10.50;99.90
8220;DHT22;4151;51.110;7.020;2022-12-20T00:38:25;10.50;99.90
8220;DHT22;4151;51.110;7.020;2022-12-20T00:41:09;10.60;99.90
8220;DHT22;4151;51.110;7.020;2022-12-20T00:43:36;10.60;99.90
8220;DHT22;4151;51.110;7.020;2022-12-20T00:46:02;10.60;99.90
8220;DHT22;4151;51.110;7.020;2022-12-20T00:48:29;10.50;99.90
8220;DHT22;4151;51.110;7.020;2022-12-20T00:50:59;10.40;99.90
8220;DHT22;4151;51.110;7.020;2022-12-20T00:53:24;10.30;99.90
8220;DHT22;4151;51.110;7.020;2022-12-20T00:55:50;10.30;99.90
8220;DHT22;4151;51.110;7.020;2022-12-20T00:58:15;10.20;99.90
8220;DHT22;4151;51.110;7.020;2022-12-20T01:00:41;10.20;99.90
8220;DHT22;4151;51.110;7.020;2022-12-20T01:03:07;10.20;99.90
8220;DHT22;4151;51.110;7.020;2022-12-20T01:05:32;10.20;99.90
8220;DHT22;4151;51.110;7.020;2022-12-20T01:07:58;10.20;99.90
8220;DHT22;4151;51.110;7.020;2022-12-20T01:10:24;10.10;99.90
8220;DHT22;4151;51.110;7.020;2022-12-20T01:12:50;10.10;99.90
8220;DHT22;4151;51.110;7.020;2022-12-20T01:15:16;10.20;99.90
8220;DHT22;4151;51.110;7.020;2022-12-20T01:17:42;10.20;99.90
8220;DHT22;4151;51.110;7.020;2022-12-20T01:20:07;10.10;99.90
8220;DHT22;4151;51.110;7.020;2022-12-20T01:22:33;10.10;99.90
8220;DHT22;4151;51.110;7.020;2022-12-20T01:24:59;10.10;99.90
8220;DHT22;4151;51.110;7.020;2022-12-20T01:27:25;10.10;99.90
8220;DHT22;4151;51.110;7.020;2022-12-20T01:29:50;9.90;99.90
8220;DHT22;4151;51.110;7.020;2022-12-20T01:32:16;9.90;99.90
8220;DHT22;4151;51.110;7.020;2022-12-20T01:34:41;9.90;99.90
8220;DHT22;4151;51.110;7.020;2022-12-20T01:37:07;10.00;99.90
8220;DHT22;4151;51.110;7.020;2022-12-20T01:39:33;10.00;99.90
8220;DHT22;4151;51.110;7.020;2022-12-20T01:41:58;9.90;99.90
8220;DHT22;4151;51.110;7.020;2022-12-20T01:46:51;10.00;99.90
8220;DHT22;4151;51.110;7.020;2022-12-20T01:49:32;9.90;99.90
8220;DHT22;4151;51.110;7.020;2022-12-20T01:52:13;9.90;99.90
8220;DHT22;4151;51.110;7.020;2022-12-20T01:57:17;9.90;99.90
8220;DHT22;4151;51.110;7.020;2022-12-20T01:59:45;9.90;99.90
8220;DHT22;4151;51.110;7.020;2022-12-20T02:02:12;9.90;99.90
8220;DHT22;4151;51.110;7.020;2022-12-20T02:04:38;9.90;99.90
8220;DHT22;4151;51.110;7.020;2022-12-20T02:07:04;9.90;99.90
8220;DHT22;4151;51.110;7.020;2022-12-20T02:09:33;9.90;99.90
8220;DHT22;4151;51.110;7.020;2022-12-20T02:12:19;9.90;99.90
8220;DHT22;4151;51.110;7.020;2022-12-20T02:18:06;9.80;99.90
8220;DHT22;4151;51.110;7.020;2022-12-20T02:31:59;9.50;99.90
8220;DHT22;4151;51.110;7.020;2022-12-20T02:34:27;9.40;99.90
8220;DHT22;4151;51.110;7.020;2022-12-20T02:36:54;9.40;99.90
8220;DHT22;4151;51.110;7.020;2022-12-20T02:39:20;9.40;99.90
8220;DHT22;4151;51.110;7.020;2022-12-20T02:42:11;9.30;99.90
8220;DHT22;4151;51.110;7.020;2022-12-20T02:44:39;9.30;99.90
8220;DHT22;4151;51.110;7.020;2022-12-20T02:47:36;9.30;99.90
8220;DHT22;4151;51.110;7.020;2022-12-20T02:50:04;9.30;99.90
8220;DHT22;4151;51.110;7.020;2022-12-20T02:52:32;9.30;99.90
8220;DHT22;4151;51.110;7.020;2022-12-20T02:54:59;9.30;99.90
8220;DHT22;4151;51.110;7.020;2022-12-20T03:00:15;9.30;99.90
8220;DHT22;4151;51.110;7.020;2022-12-20T03:02:43;9.30;99.90
8220;DHT22;4151;51.110;7.020;2022-12-20T03:05:29;9.30;99.90
8220;DHT22;4151;51.110;7.020;2022-12-20T03:07:55;9.30;99.90
8220;DHT22;4151;51.110;7.020;2022-12-20T03:10:22;9.30;99.90
8220;DHT22;4151;51.110;7.020;2022-12-20T03:12:47;9.30;99.90
8220;DHT22;4151;51.110;7.020;2022-12-20T03:15:13;9.40;99.90
8220;DHT22;4151;51.110;7.020;2022-12-20T03:17:39;9.40;99.90
8220;DHT22;4151;51.110;7.020;2022-12-20T03:20:05;9.40;99.90
8220;DHT22;4151;51.110;7.020;2022-12-20T03:22:32;9.50;99.90
8220;DHT22;4151;51.110;7.020;2022-12-20T03:24:59;9.50;99.90
8220;DHT22;4151;51.110;7.020;2022-12-20T03:27:25;9.50;99.90
8220;DHT22;4151;51.110;7.020;2022-12-20T03:29:52;9.60;99.90
8220;DHT22;4151;51.110;7.020;2022-12-20T03:32:18;9.60;99.90
8220;DHT22;4151;51.110;7.020;2022-12-20T03:34:43;9.60;99.90
8220;DHT22;4151;51.110;7.020;2022-12-20T03:37:09;9.50;99.90
8220;DHT22;4151;51.110;7.020;2022-12-20T03:39:35;9.60;99.90
8220;DHT22;4151;51.110;7.020;2022-12-20T03:42:00;9.60;99.90
8220;DHT22;4151;51.110;7.020;2022-12-20T03:44:26;9.50;99.90
8220;DHT22;4151;51.110;7.020;2022-12-20T03:46:51;9.50;99.90
8220;DHT22;4151;51.110;7.020;2022-12-20T03:49:17;9.50;99.90
8220;DHT22;4151;51.110;7.020;2022-12-20T03:51:43;9.40;99.90
8220;DHT22;4151;51.110;7.020;2022-12-20T03:54:08;9.40;99.90
8220;DHT22;4151;51.110;7.020;2022-12-20T03:56:34;9.40;99.90
8220;DHT22;4151;51.110;7.020;2022-12-20T03:58:59;9.30;99.90
8220;DHT22;4151;51.110;7.020;2022-12-20T04:01:27;9.30;99.90
8220;DHT22;4151;51.110;7.020;2022-12-20T04:03:53;9.30;99.90
8220;DHT22;4151;51.110;7.020;2022-12-20T04:06:19;9.20;99.90
8220;DHT22;4151;51.110;7.020;2022-12-20T04:08:45;9.20;99.90
8220;DHT22;4151;51.110;7.020;2022-12-20T04:11:11;9.20;99.90
8220;DHT22;4151;51.110;7.020;2022-12-20T04:13:45;9.20;99.90
8220;DHT22;4151;51.110;7.020;2022-12-20T04:16:12;9.20;99.90
8220;DHT22;4151;51.110;7.020;2022-12-20T04:18:38;9.20;99.90
8220;DHT22;4151;51.110;7.020;2022-12-20T04:21:04;9.20;99.90
8220;DHT22;4151;51.110;7.020;2022-12-20T04:23:32;9.20;99.90
8220;DHT22;4151;51.110;7.020;2022-12-20T04:25:57;9.30;99.90
8220;DHT22;4151;51.110;7.020;2022-12-20T04:28:23;9.30;99.90
8220;DHT22;4151;51.110;7.020;2022-12-20T04:30:48;9.30;99.90
8220;DHT22;4151;51.110;7.020;2022-12-20T04:33:14;9.20;99.90
8220;DHT22;4151;51.110;7.020;2022-12-20T04:35:40;9.20;99.90
8220;DHT22;4151;51.110;7.020;2022-12-20T04:38:05;9.20;99.90
8220;DHT22;4151;51.110;7.020;2022-12-20T04:40:31;9.20;99.90
8220;DHT22;4151;51.110;7.020;2022-12-20T04:42:56;9.20;99.90
8220;DHT22;4151;51.110;7.020;2022-12-20T04:45:22;9.20;99.90
8220;DHT22;4151;51.110;7.020;2022-12-20T04:47:47;9.20;99.90
8220;DHT22;4151;51.110;7.020;2022-12-20T04:50:13;9.20;99.90
8220;DHT22;4151;51.110;7.020;2022-12-20T04:52:38;9.20;99.90
8220;DHT22;4151;51.110;7.020;2022-12-20T04:55:22;9.20;99.90
8220;DHT22;4151;51.110;7.020;2022-12-20T04:57:48;9.20;99.90
8220;DHT22;4151;51.110;7.020;2022-12-20T05:00:14;9.20;99.90
8220;DHT22;4151;51.110;7.020;2022-12-20T05:02:40;9.20;99.90
8220;DHT22;4151;51.110;7.020;2022-12-20T05:05:06;9.20;99.90
8220;DHT22;4151;51.110;7.020;2022-12-20T05:07:31;9.20;99.90
8220;DHT22;4151;51.110;7.020;2022-12-20T05:09:57;9.20;99.90
8220;DHT22;4151;51.110;7.020;2022-12-20T05:12:22;9.30;99.90
8220;DHT22;4151;51.110;7.020;2022-12-20T05:14:48;9.30;99.90
8220;DHT22;4151;51.110;7.020;2022-12-20T05:17:13;9.30;99.90
8220;DHT22;4151;51.110;7.020;2022-12-20T05:19:39;9.40;99.90
8220;DHT22;4151;51.110;7.020;2022-12-20T05:22:05;9.40;99.90
8220;DHT22;4151;51.110;7.020;2022-12-20T05:24:49;9.40;99.90
8220;DHT22;4151;51.110;7.020;2022-12-20T05:27:33;9.40;99.90
8220;DHT22;4151;51.110;7.020;2022-12-20T05:29:58;9.50;99.90
8220;DHT22;4151;51.110;7.020;2022-12-20T05:32:24;9.50;99.90
8220;DHT22;4151;51.110;7.020;2022-12-20T05:34:49;9.50;99.90
8220;DHT22;4151;51.110;7.020;2022-12-20T05:37:15;9.50;99.90
8220;DHT22;4151;51.110;7.020;2022-12-20T05:39:40;9.60;99.90
8220;DHT22;4151;51.110;7.020;2022-12-20T05:42:06;9.50;99.90
8220;DHT22;4151;51.110;7.020;2022-12-20T05:44:31;9.60;99.90
8220;DHT22;4151;51.110;7.020;2022-12-20T05:46:57;9.60;99.90
8220;DHT22;4151;51.110;7.020;2022-12-20T05:49:22;9.60;99.90
8220;DHT22;4151;51.110;7.020;2022-12-20T05:51:48;9.60;99.90
8220;DHT22;4151;51.110;7.020;2022-12-20T05:54:14;9.70;99.90
8220;DHT22;4151;51.110;7.020;2022-12-20T05:56:39;9.70;99.90
8220;DHT22;4151;51.110;7.020;2022-12-20T05:59:05;9.70;99.90
8220;DHT22;4151;51.110;7.020;2022-12-20T06:01:30;9.70;99.90
8220;DHT22;4151;51.110;7.020;2022-12-20T06:03:56;9.70;99.90
8220;DHT22;4151;51.110;7.020;2022-12-20T06:06:21;9.70;99.90
8220;DHT22;4151;51.110;7.020;2022-12-20T06:08:47;9.80;99.90
8220;DHT22;4151;51.110;7.020;2022-12-20T06:11:12;9.80;99.90
8220;DHT22;4151;51.110;7.020;2022-12-20T06:13:38;9.80;99.90
8220;DHT22;4151;51.110;7.020;2022-12-20T06:16:04;9.80;99.90
8220;DHT22;4151;51.110;7.020;2022-12-20T06:18:29;9.90;99.90
8220;DHT22;4151;51.110;7.020;2022-12-20T06:20:55;9.90;99.90
8220;DHT22;4151;51.110;7.020;2022-12-20T06:23:20;9.90;99.90
8220;DHT22;4151;51.110;7.020;2022-12-20T06:25:46;9.90;99.90
8220;DHT22;4151;51.110;7.020;2022-12-20T06:28:13;9.90;99.90
8220;DHT22;4151;51.110;7.020;2022-12-20T06:30:38;9.90;99.90
8220;DHT22;4151;51.110;7.020;2022-12-20T06:33:04;9.80;99.90
8220;DHT22;4151;51.110;7.020;2022-12-20T06:35:30;9.80;99.90
8220;DHT22;4151;51.110;7.020;2022-12-20T06:37:56;9.80;99.90
8220;DHT22;4151;51.110;7.020;2022-12-20T06:40:22;9.80;99.90
8220;DHT22;4151;51.110;7.020;2022-12-20T06:42:47;9.80;99.90
8220;DHT22;4151;51.110;7.020;2022-12-20T06:45:14;9.80;99.90
8220;DHT22;4151;51.110;7.020;2022-12-20T06:47:40;9.80;99.90
8220;DHT22;4151;51.110;7.020;2022-12-20T06:50:06;9.80;99.90
8220;DHT22;4151;51.110;7.020;2022-12-20T06:52:32;9.80;99.90
8220;DHT22;4151;51.110;7.020;2022-12-20T06:54:58;9.80;99.90
8220;DHT22;4151;51.110;7.020;2022-12-20T06:57:23;9.80;99.90
8220;DHT22;4151;51.110;7.020;2022-12-20T06:59:49;9.70;99.90
8220;DHT22;4151;51.110;7.020;2022-12-20T07:02:14;9.70;99.90
8220;DHT22;4151;51.110;7.020;2022-12-20T07:04:40;9.70;99.90
8220;DHT22;4151;51.110;7.020;2022-12-20T07:07:06;9.70;99.90
8220;DHT22;4151;51.110;7.020;2022-12-20T07:09:32;9.70;99.90
8220;DHT22;4151;51.110;7.020;2022-12-20T07:11:57;9.70;99.90
8220;DHT22;4151;51.110;7.020;2022-12-20T07:14:23;9.70;99.90
8220;DHT22;4151;51.110;7.020;2022-12-20T07:16:48;9.70;99.90
8220;DHT22;4151;51.110;7.020;2022-12-20T07:19:14;9.70;99.90
8220;DHT22;4151;51.110;7.020;2022-12-20T07:21:41;9.70;99.90
8220;DHT22;4151;51.110;7.020;2022-12-20T07:24:07;9.70;99.90
8220;DHT22;4151;51.110;7.020;2022-12-20T07:26:33;9.70;99.90
8220;DHT22;4151;51.110;7.020;2022-12-20T07:28:59;9.70;99.90
8220;DHT22;4151;51.110;7.020;2022-12-20T07:31:24;9.70;99.90
8220;DHT22;4151;51.110;7.020;2022-12-20T07:33:50;9.70;99.90
8220;DHT22;4151;51.110;7.020;2022-12-20T07:36:15;9.70;99.90
8220;DHT22;4151;51.110;7.020;2022-12-20T07:38:41;9.70;99.90
8220;DHT22;4151;51.110;7.020;2022-12-20T07:41:13;9.70;99.90
8220;DHT22;4151;51.110;7.020;2022-12-20T07:43:39;9.80;99.90
8220;DHT22;4151;51.110;7.020;2022-12-20T07:46:06;9.80;99.90
8220;DHT22;4151;51.110;7.020;2022-12-20T07:48:32;9.80;99.90
8220;DHT22;4151;51.110;7.020;2022-12-20T07:51:18;9.80;99.90
8220;DHT22;4151;51.110;7.020;2022-12-20T07:54:10;9.80;99.90
8220;DHT22;4151;51.110;7.020;2022-12-20T07:56:39;9.80;99.90
8220;DHT22;4151;51.110;7.020;2022-12-20T07:59:06;9.90;99.90
8220;DHT22;4151;51.110;7.020;2022-12-20T08:01:34;9.90;99.90
8220;DHT22;4151;51.110;7.020;2022-12-20T08:04:04;9.80;99.90
8220;DHT22;4151;51.110;7.020;2022-12-20T08:06:32;9.80;99.90
8220;DHT22;4151;51.110;7.020;2022-12-20T08:08:59;9.80;99.90
8220;DHT22;4151;51.110;7.020;2022-12-20T08:11:27;9.80;99.90
8220;DHT22;4151;51.110;7.020;2022-12-20T08:13:54;9.80;99.90
8220;DHT22;4151;51.110;7.020;2022-12-20T08:16:19;9.80;99.90
8220;DHT22;4151;51.110;7.020;2022-12-20T08:18:45;9.80;99.90
8220;DHT22;4151;51.110;7.020;2022-12-20T08:21:11;9.80;99.90
8220;DHT22;4151;51.110;7.020;2022-12-20T08:23:37;9.80;99.90
8220;DHT22;4151;51.110;7.020;2022-12-20T08:26:03;9.90;99.90
8220;DHT22;4151;51.110;7.020;2022-12-20T08:28:29;10.00;99.90
8220;DHT22;4151;51.110;7.020;2022-12-20T08:31:05;10.10;99.90
8220;DHT22;4151;51.110;7.020;2022-12-20T08:33:33;10.10;99.90
8220;DHT22;4151;51.110;7.020;2022-12-20T08:36:00;10.10;99.90
8220;DHT22;4151;51.110;7.020;2022-12-20T08:38:27;10.20;99.90
8220;DHT22;4151;51.110;7.020;2022-12-20T08:40:53;10.20;99.90
8220;DHT22;4151;51.110;7.020;2022-12-20T08:43:19;10.30;99.90
8220;DHT22;4151;51.110;7.020;2022-12-20T08:45:44;10.30;99.90
8220;DHT22;4151;51.110;7.020;2022-12-20T08:48:10;10.30;99.90
8220;DHT22;4151;51.110;7.020;2022-12-20T08:50:36;10.30;99.90
8220;DHT22;4151;51.110;7.020;2022-12-20T08:53:02;10.30;99.90
8220;DHT22;4151;51.110;7.020;2022-12-20T08:55:27;10.30;99.90
8220;DHT22;4151;51.110;7.020;2022-12-20T08:57:53;10.30;99.90
8220;DHT22;4151;51.110;7.020;2022-12-20T09:00:18;10.30;99.90
8220;DHT22;4151;51.110;7.020;2022-12-20T09:02:44;10.40;99.90
8220;DHT22;4151;51.110;7.020;2022-12-20T09:05:09;10.40;99.90
8220;DHT22;4151;51.110;7.020;2022-12-20T09:07:35;10.40;99.90
8220;DHT22;4151;51.110;7.020;2022-12-20T09:10:00;10.30;99.90
8220;DHT22;4151;51.110;7.020;2022-12-20T09:12:27;10.30;99.90
8220;DHT22;4151;51.110;7.020;2022-12-20T09:14:52;10.30;99.90
8220;DHT22;4151;51.110;7.020;2022-12-20T09:17:18;10.20;99.90
8220;DHT22;4151;51.110;7.020;2022-12-20T09:19:43;10.20;99.90
8220;DHT22;4151;51.110;7.020;2022-12-20T09:22:09;10.20;99.90
8220;DHT22;4151;51.110;7.020;2022-12-20T09:24:36;10.20;99.90
8220;DHT22;4151;51.110;7.020;2022-12-20T09:27:02;10.20;99.90
8220;DHT22;4151;51.110;7.020;2022-12-20T09:29:27;10.20;99.90
8220;DHT22;4151;51.110;7.020;2022-12-20T09:31:53;10.30;99.90
8220;DHT22;4151;51.110;7.020;2022-12-20T09:34:19;10.30;99.90
8220;DHT22;4151;51.110;7.020;2022-12-20T09:36:44;10.30;99.90
8220;DHT22;4151;51.110;7.020;2022-12-20T09:39:10;10.30;99.90
8220;DHT22;4151;51.110;7.020;2022-12-20T09:41:43;10.30;99.90
8220;DHT22;4151;51.110;7.020;2022-12-20T09:46:53;10.20;99.90
8220;DHT22;4151;51.110;7.020;2022-12-20T09:49:22;10.20;99.90
8220;DHT22;4151;51.110;7.020;2022-12-20T09:57:53;10.20;99.90
8220;DHT22;4151;51.110;7.020;2022-12-20T10:00:21;10.30;99.90
8220;DHT22;4151;51.110;7.020;2022-12-20T10:02:47;10.40;99.90
8220;DHT22;4151;51.110;7.020;2022-12-20T10:05:17;10.50;99.90
8220;DHT22;4151;51.110;7.020;2022-12-20T10:10:50;10.50;99.90
8220;DHT22;4151;51.110;7.020;2022-12-20T10:13:40;10.40;99.90
8220;DHT22;4151;51.110;7.020;2022-12-20T10:16:18;10.40;99.90
8220;DHT22;4151;51.110;7.020;2022-12-20T10:24:44;10.30;99.90
8220;DHT22;4151;51.110;7.020;2022-12-20T10:27:18;10.30;99.90
8220;DHT22;4151;51.110;7.020;2022-12-20T10:29:45;10.30;99.90
8220;DHT22;4151;51.110;7.020;2022-12-20T10:32:15;10.40;99.90
8220;DHT22;4151;51.110;7.020;2022-12-20T10:37:35;10.50;99.90
8220;DHT22;4151;51.110;7.020;2022-12-20T10:40:01;10.50;99.90
8220;DHT22;4151;51.110;7.020;2022-12-20T10:44:58;10.50;99.90
8220;DHT22;4151;51.110;7.020;2022-12-20T10:47:44;10.60;99.90
8220;DHT22;4151;51.110;7.020;2022-12-20T10:52:43;10.70;99.90
8220;DHT22;4151;51.110;7.020;2022-12-20T10:55:38;10.80;99.90
8220;DHT22;4151;51.110;7.020;2022-12-20T11:00:47;11.00;99.90
8220;DHT22;4151;51.110;7.020;2022-12-20T11:03:19;11.00;99.90
8220;DHT22;4151;51.110;7.020;2022-12-20T11:05:57;11.10;99.90
8220;DHT22;4151;51.110;7.020;2022-12-20T11:08:25;11.10;99.90
8220;DHT22;4151;51.110;7.020;2022-12-20T11:11:10;11.20;99.90
8220;DHT22;4151;51.110;7.020;2022-12-20T11:13:37;11.20;99.90
8220;DHT22;4151;51.110;7.020;2022-12-20T11:16:04;11.30;99.90
8220;DHT22;4151;51.110;7.020;2022-12-20T11:21:45;11.40;99.90
8220;DHT22;4151;51.110;7.020;2022-12-20T11:27:18;11.40;99.90
8220;DHT22;4151;51.110;7.020;2022-12-20T11:33:30;11.40;99.90
8220;DHT22;4151;51.110;7.020;2022-12-20T11:36:02;11.40;99.90
8220;DHT22;4151;51.110;7.020;2022-12-20T11:38:49;11.40;99.90
8220;DHT22;4151;51.110;7.020;2022-12-20T11:44:13;11.40;99.90
8220;DHT22;4151;51.110;7.020;2022-12-20T11:50:33;11.50;99.90
8220;DHT22;4151;51.110;7.020;2022-12-20T11:53:07;11.50;99.90
8220;DHT22;4151;51.110;7.020;2022-12-20T11:55:38;11.50;99.90
8220;DHT22;4151;51.110;7.020;2022-12-20T11:58:13;11.50;99.90
8220;DHT22;4151;51.110;7.020;2022-12-20T12:00:49;11.60;99.90
8220;DHT22;4151;51.110;7.020;2022-12-20T12:14:01;11.60;99.90
8220;DHT22;4151;51.110;7.020;2022-12-20T12:16:33;11.60;99.90
8220;DHT22;4151;51.110;7.020;2022-12-20T12:19:00;11.50;99.90
8220;DHT22;4151;51.110;7.020;2022-12-20T12:21:32;11.50;99.90
8220;DHT22;4151;51.110;7.020;2022-12-20T12:26:43;11.50;99.90
8220;DHT22;4151;51.110;7.020;2022-12-20T12:29:10;11.60;99.90
8220;DHT22;4151;51.110;7.020;2022-12-20T12:34:29;11.60;99.90
8220;DHT22;4151;51.110;7.020;2022-12-20T12:43:43;11.30;99.90
8220;DHT22;4151;51.110;7.020;2022-12-20T12:45:57;11.20;99.90
8220;DHT22;4151;51.110;7.020;2022-12-20T12:51:02;10.90;99.90
8220;DHT22;4151;51.110;7.020;2022-12-20T12:53:48;10.80;99.90
8220;DHT22;4151;51.110;7.020;2022-12-20T13:11:50;10.40;99.90
8220;DHT22;4151;51.110;7.020;2022-12-20T13:16:45;10.40;99.90
8220;DHT22;4151;51.110;7.020;2022-12-20T13:22:40;10.40;99.90
8220;DHT22;4151;51.110;7.020;2022-12-20T13:25:00;10.40;99.90
8220;DHT22;4151;51.110;7.020;2022-12-20T13:27:37;10.50;99.90
8220;DHT22;4151;51.110;7.020;2022-12-20T13:38:04;10.50;99.90
8220;DHT22;4151;51.110;7.020;2022-12-20T13:40:48;10.50;99.90
8220;DHT22;4151;51.110;7.020;2022-12-20T13:43:27;10.50;99.90
8220;DHT22;4151;51.110;7.020;2022-12-20T13:51:02;10.60;99.90
8220;DHT22;4151;51.110;7.020;2022-12-20T13:53:28;10.60;99.90
8220;DHT22;4151;51.110;7.020;2022-12-20T13:55:55;10.60;99.90
8220;DHT22;4151;51.110;7.020;2022-12-20T13:58:22;10.60;99.90
8220;DHT22;4151;51.110;7.020;2022-12-20T14:00:48;10.60;99.90
8220;DHT22;4151;51.110;7.020;2022-12-20T14:03:26;10.60;99.90
8220;DHT22;4151;51.110;7.020;2022-12-20T14:06:03;10.50;99.90
8220;DHT22;4151;51.110;7.020;2022-12-20T14:08:35;10.50;99.90
8220;DHT22;4151;51.110;7.020;2022-12-20T14:11:10;10.50;99.90
8220;DHT22;4151;51.110;7.020;2022-12-20T14:13:36;10.50;99.90
8220;DHT22;4151;51.110;7.020;2022-12-20T14:16:16;10.50;99.90
8220;DHT22;4151;51.110;7.020;2022-12-20T14:18:50;10.50;99.90
8220;DHT22;4151;51.110;7.020;2022-12-20T14:21:25;10.50;99.90
8220;DHT22;4151;51.110;7.020;2022-12-20T14:23:53;10.50;99.90
8220;DHT22;4151;51.110;7.020;2022-12-20T14:28:50;10.40;99.90
8220;DHT22;4151;51.110;7.020;2022-12-20T14:36:27;10.30;99.90
8220;DHT22;4151;51.110;7.020;2022-12-20T14:38:54;10.30;99.90
8220;DHT22;4151;51.110;7.020;2022-12-20T14:41:34;10.30;99.90
8220;DHT22;4151;51.110;7.020;2022-12-20T14:44:16;10.30;99.90
8220;DHT22;4151;51.110;7.020;2022-12-20T14:47:21;10.30;99.90
8220;DHT22;4151;51.110;7.020;2022-12-20T14:49:56;10.30;99.90
8220;DHT22;4151;51.110;7.020;2022-12-20T14:52:35;10.30;99.90
8220;DHT22;4151;51.110;7.020;2022-12-20T14:55:06;10.30;99.90
8220;DHT22;4151;51.110;7.020;2022-12-20T15:00:18;10.20;99.90
8220;DHT22;4151;51.110;7.020;2022-12-20T15:02:51;10.20;99.90
8220;DHT22;4151;51.110;7.020;2022-12-20T15:08:36;10.10;99.90
8220;DHT22;4151;51.110;7.020;2022-12-20T15:13:38;10.20;99.90
8220;DHT22;4151;51.110;7.020;2022-12-20T15:18:37;10.20;99.90
8220;DHT22;4151;51.110;7.020;2022-12-20T15:21:05;10.20;99.90
8220;DHT22;4151;51.110;7.020;2022-12-20T15:23:33;10.20;99.90
8220;DHT22;4151;51.110;7.020;2022-12-20T15:25:58;10.20;99.90
8220;DHT22;4151;51.110;7.020;2022-12-20T15:28:25;10.20;99.90
8220;DHT22;4151;51.110;7.020;2022-12-20T15:30:51;10.20;99.90
8220;DHT22;4151;51.110;7.020;2022-12-20T15:33:26;10.20;99.90
8220;DHT22;4151;51.110;7.020;2022-12-20T15:35:53;10.20;99.90
8220;DHT22;4151;51.110;7.020;2022-12-20T15:38:22;10.20;99.90
8220;DHT22;4151;51.110;7.020;2022-12-20T15:40:51;10.10;99.90
8220;DHT22;4151;51.110;7.020;2022-12-20T15:43:18;10.20;99.90
8220;DHT22;4151;51.110;7.020;2022-12-20T15:45:47;10.10;99.90
8220;DHT22;4151;51.110;7.020;2022-12-20T15:48:17;10.10;99.90
8220;DHT22;4151;51.110;7.020;2022-12-20T15:50:54;10.10;99.90
8220;DHT22;4151;51.110;7.020;2022-12-20T15:53:26;10.10;99.90
8220;DHT22;4151;51.110;7.020;2022-12-20T15:55:54;10.10;99.90
8220;DHT22;4151;51.110;7.020;2022-12-20T15:58:20;10.10;99.90
8220;DHT22;4151;51.110;7.020;2022-12-20T16:00:46;10.10;99.90
8220;DHT22;4151;51.110;7.020;2022-12-20T16:03:14;10.10;99.90
8220;DHT22;4151;51.110;7.020;2022-12-20T16:05:40;10.10;99.90
8220;DHT22;4151;51.110;7.020;2022-12-20T16:08:06;10.10;99.90
8220;DHT22;4151;51.110;7.020;2022-12-20T16:10:31;10.10;99.90
8220;DHT22;4151;51.110;7.020;2022-12-20T16:12:57;10.10;99.90
8220;DHT22;4151;51.110;7.020;2022-12-20T16:15:23;10.10;99.90
8220;DHT22;4151;51.110;7.020;2022-12-20T16:17:48;10.10;99.90
8220;DHT22;4151;51.110;7.020;2022-12-20T16:20:14;10.10;99.90
8220;DHT22;4151;51.110;7.020;2022-12-20T16:22:40;10.10;99.90
8220;DHT22;4151;51.110;7.020;2022-12-20T16:25:05;10.10;99.90
8220;DHT22;4151;51.110;7.020;2022-12-20T16:27:31;10.30;99.90
8220;DHT22;4151;51.110;7.020;2022-12-20T16:29:57;10.30;99.90
8220;DHT22;4151;51.110;7.020;2022-12-20T16:32:22;10.40;99.90
8220;DHT22;4151;51.110;7.020;2022-12-20T16:34:48;10.40;99.90
8220;DHT22;4151;51.110;7.020;2022-12-20T16:37:14;10.40;99.90
8220;DHT22;4151;51.110;7.020;2022-12-20T16:39:40;10.40;99.90
8220;DHT22;4151;51.110;7.020;2022-12-20T16:42:14;10.30;99.90
8220;DHT22;4151;51.110;7.020;2022-12-20T16:44:40;10.30;99.90
8220;DHT22;4151;51.110;7.020;2022-12-20T16:47:09;10.30;99.90
8220;DHT22;4151;51.110;7.020;2022-12-20T16:49:34;10.30;99.90
8220;DHT22;4151;51.110;7.020;2022-12-20T16:52:02;10.30;99.90
8220;DHT22;4151;51.110;7.020;2022-12-20T16:54:29;10.30;99.90
8220;DHT22;4151;51.110;7.020;2022-12-20T16:56:54;10.30;99.90
8220;DHT22;4151;51.110;7.020;2022-12-20T16:59:24;10.30;99.90
8220;DHT22;4151;51.110;7.020;2022-12-20T17:01:54;10.40;99.90
8220;DHT22;4151;51.110;7.020;2022-12-20T17:04:21;10.40;99.90
8220;DHT22;4151;51.110;7.020;2022-12-20T17:06:47;10.40;99.90
8220;DHT22;4151;51.110;7.020;2022-12-20T17:09:13;10.30;99.90
8220;DHT22;4151;51.110;7.020;2022-12-20T17:11:40;10.30;99.90
8220;DHT22;4151;51.110;7.020;2022-12-20T17:14:06;10.30;99.90
8220;DHT22;4151;51.110;7.020;2022-12-20T17:16:32;10.30;99.90
8220;DHT22;4151;51.110;7.020;2022-12-20T17:18:58;10.50;99.90
8220;DHT22;4151;51.110;7.020;2022-12-20T17:21:33;10.30;99.90
8220;DHT22;4151;51.110;7.020;2022-12-20T17:24:00;10.20;99.90
8220;DHT22;4151;51.110;7.020;2022-12-20T17:26:27;10.30;99.90
8220;DHT22;4151;51.110;7.020;2022-12-20T17:28:54;10.30;99.90
8220;DHT22;4151;51.110;7.020;2022-12-20T17:31:30;10.30;99.90
8220;DHT22;4151;51.110;7.020;2022-12-20T17:34:00;10.40;99.90
8220;DHT22;4151;51.110;7.020;2022-12-20T17:36:26;10.40;99.90
8220;DHT22;4151;51.110;7.020;2022-12-20T17:38:52;10.40;99.90
8220;DHT22;4151;51.110;7.020;2022-12-20T17:49:40;10.40;99.90
8220;DHT22;4151;51.110;7.020;2022-12-20T17:52:14;10.40;99.90
8220;DHT22;4151;51.110;7.020;2022-12-20T17:54:39;10.40;99.90
8220;DHT22;4151;51.110;7.020;2022-12-20T17:57:15;10.40;99.90
8220;DHT22;4151;51.110;7.020;2022-12-20T17:59:41;10.40;99.90
8220;DHT22;4151;51.110;7.020;2022-12-20T18:02:21;10.40;99.90
8220;DHT22;4151;51.110;7.020;2022-12-20T18:04:47;10.40;99.90
8220;DHT22;4151;51.110;7.020;2022-12-20T18:07:13;10.40;99.90
8220;DHT22;4151;51.110;7.020;2022-12-20T18:09:38;10.40;99.90
8220;DHT22;4151;51.110;7.020;2022-12-20T18:12:04;10.40;99.90
8220;DHT22;4151;51.110;7.020;2022-12-20T18:14:29;10.30;99.90
8220;DHT22;4151;51.110;7.020;2022-12-20T18:16:55;10.40;99.90
8220;DHT22;4151;51.110;7.020;2022-12-20T18:19:20;10.50;99.90
8220;DHT22;4151;51.110;7.020;2022-12-20T18:21:46;10.50;99.90
8220;DHT22;4151;51.110;7.020;2022-12-20T18:24:13;10.50;99.90
8220;DHT22;4151;51.110;7.020;2022-12-20T18:26:40;10.50;99.90
8220;DHT22;4151;51.110;7.020;2022-12-20T18:29:06;10.50;99.90
8220;DHT22;4151;51.110;7.020;2022-12-20T18:31:33;10.50;99.90
8220;DHT22;4151;51.110;7.020;2022-12-20T18:33:59;10.50;99.90
8220;DHT22;4151;51.110;7.020;2022-12-20T18:36:28;10.50;99.90
8220;DHT22;4151;51.110;7.020;2022-12-20T18:38:56;10.50;99.90
8220;DHT22;4151;51.110;7.020;2022-12-20T18:41:25;10.50;99.90
8220;DHT22;4151;51.110;7.020;2022-12-20T18:43:52;10.50;99.90
8220;DHT22;4151;51.110;7.020;2022-12-20T18:46:20;10.50;99.90
8220;DHT22;4151;51.110;7.020;2022-12-20T18:48:47;10.50;99.90